Time;durP1;ratioP1;P1;durP2;ratioP2;P2;SDS_P1;SDS_P2;PMS_P1;PMS_P2;Temp;Humidity;BMP_temperature;BMP_pressure;BME280_temperature;BME280_humidity;BME280_pressure;Samples;Min_cycle;Max_cycle;Signal;HPM_P1;HPM_P2
2021/10/02 00:31:01;;;;;;;5.72;1.88;;;13.90;95.20;;;;;;5032365;28;20108;-47
2021/10/02 00:37:44;;;;;;;;;;;13.40;97.50;;;;;;5071265;28;20032;-46
2021/10/02 00:45:40;;;;;;;2.65;1.60;;;13.60;96.90;;;;;;5071167;28;20470;-45
2021/10/02 00:48:08;;;;;;;2.20;1.45;;;13.70;96.60;;;;;;5069480;28;20029;-46
2021/10/02 00:50:34;;;;;;;3.00;1.65;;;13.70;96.50;;;;;;5071294;28;20024;-47
2021/10/02 00:52:59;;;;;;;4.82;1.90;;;13.80;96.30;;;;;;5062494;28;20390;-47
2021/10/02 00:55:25;;;;;;;4.05;1.85;;;13.80;96.30;;;;;;5065036;28;20158;-46
2021/10/02 00:57:50;;;;;;;9.05;2.22;;;13.80;96.10;;;;;;5070402;28;20482;-46
2021/10/02 01:00:16;;;;;;;4.28;1.90;;;13.80;96.10;;;;;;5070631;28;20043;-47
2021/10/02 01:03:00;;;;;;;3.88;1.50;;;13.90;96.20;;;;;;5058018;28;20421;-46
2021/10/02 01:05:38;;;;;;;2.72;1.70;;;13.80;96.00;;;;;;5059100;28;20486;-47
2021/10/02 01:08:27;;;;;;;3.38;1.83;;;13.80;96.00;;;;;;5068880;28;20036;-46
2021/10/02 01:11:13;;;;;;;3.25;1.90;;;13.80;96.00;;;;;;5056800;28;20040;-46
2021/10/02 01:13:53;;;;;;;3.35;1.65;;;13.80;96.20;;;;;;5062267;28;20040;-47
2021/10/02 01:16:29;;;;;;;5.55;2.17;;;13.80;96.20;;;;;;5068820;28;20393;-46
2021/10/02 01:19:16;;;;;;;5.82;1.65;;;13.80;96.30;;;;;;5058093;28;20067;-46
2021/10/02 01:22:08;;;;;;;4.72;1.95;;;13.80;96.50;;;;;;5070521;28;20029;-45
2021/10/02 01:24:57;;;;;;;5.75;1.45;;;13.80;96.50;;;;;;5070538;28;20302;-45
2021/10/02 01:27:50;;;;;;;3.67;1.73;;;13.80;96.40;;;;;;5057804;28;20024;-46
2021/10/02 01:30:23;;;;;;;3.22;1.73;;;13.80;96.40;;;;;;5055225;28;20024;-46
2021/10/02 01:33:02;;;;;;;4.47;1.58;;;13.80;96.50;;;;;;5052344;28;20442;-49
2021/10/02 01:49:35;;;;;;;3.67;1.70;;;13.90;96.20;;;;;;5050147;28;20162;-46
2021/10/02 01:52:01;;;;;;;3.50;1.80;;;13.90;96.50;;;;;;5049938;28;20082;-48
2021/10/02 01:54:29;;;;;;;8.32;1.95;;;13.90;96.90;;;;;;5039410;28;20120;-47
2021/10/02 01:56:57;;;;;;;4.70;2.25;;;13.80;97.20;;;;;;5067353;28;20039;-47
2021/10/02 01:59:28;;;;;;;5.13;2.22;;;13.80;97.70;;;;;;5069740;28;20029;-46
2021/10/02 02:01:55;;;;;;;4.80;1.90;;;13.70;97.90;;;;;;5052333;28;20017;-48
2021/10/02 02:04:22;;;;;;;4.13;1.92;;;13.70;98.30;;;;;;5043662;28;20024;-47
2021/10/02 02:06:50;;;;;;;4.47;1.92;;;13.70;98.90;;;;;;5053926;28;20013;-47
2021/10/02 02:09:17;;;;;;;12.43;2.28;;;13.60;99.50;;;;;;5061805;28;20386;-49
2021/10/02 02:11:45;;;;;;;2.97;1.50;;;13.60;99.40;;;;;;5069668;28;20050;-48
2021/10/02 02:14:13;;;;;;;3.38;1.80;;;13.60;99.90;;;;;;5069356;28;20056;-46
2021/10/02 02:16:40;;;;;;;2.55;1.70;;;13.60;99.90;;;;;;5068993;28;20029;-48
2021/10/02 02:19:06;;;;;;;5.90;2.17;;;13.50;99.90;;;;;;5067889;28;20024;-46
2021/10/02 02:21:32;;;;;;;6.95;1.90;;;13.40;99.90;;;;;;5069073;28;20025;-46
2021/10/02 02:23:58;;;;;;;4.90;1.80;;;13.30;99.90;;;;;;5069185;28;20025;-48
2021/10/02 02:26:26;;;;;;;3.83;2.17;;;13.30;99.90;;;;;;5069041;28;20024;-47
2021/10/02 02:28:52;;;;;;;3.05;1.88;;;13.20;99.90;;;;;;5068907;28;20036;-46
2021/10/02 02:31:18;;;;;;;4.45;2.53;;;13.10;99.90;;;;;;5059644;28;20039;-48
2021/10/02 02:33:45;;;;;;;5.82;2.20;;;13.00;99.90;;;;;;5065821;28;20029;-46
2021/10/02 02:36:10;;;;;;;6.55;2.42;;;12.80;99.90;;;;;;5068778;28;20152;-47
2021/10/02 02:38:37;;;;;;;3.70;2.10;;;12.70;99.90;;;;;;5068540;28;20092;-46
2021/10/02 02:41:03;;;;;;;5.47;2.00;;;12.60;99.90;;;;;;5069100;28;20055;-48
2021/10/02 02:43:32;;;;;;;4.90;2.00;;;12.60;99.90;;;;;;5069465;28;20039;-47
2021/10/02 02:46:06;;;;;;;7.80;2.40;;;12.50;99.90;;;;;;5069058;28;20139;-50
2021/10/02 02:48:40;;;;;;;3.30;2.50;;;12.50;99.90;;;;;;5068879;28;20016;-47
2021/10/02 02:51:12;;;;;;;8.60;2.83;;;12.30;99.90;;;;;;5069061;28;20028;-47
2021/10/02 02:54:11;;;;;;;5.15;2.28;;;12.20;99.90;;;;;;5066143;28;20452;-47
2021/10/02 02:56:43;;;;;;;2.55;1.65;;;12.10;99.90;;;;;;5054368;28;20040;-45
2021/10/02 02:59:28;;;;;;;5.00;2.70;;;12.10;99.90;;;;;;5051588;28;20020;-47
2021/10/02 03:01:55;;;;;;;4.55;2.45;;;12.00;99.90;;;;;;5060415;28;20036;-49
2021/10/02 03:04:31;;;;;;;4.28;2.30;;;12.00;99.90;;;;;;5068745;28;20115;-46
2021/10/02 03:06:58;;;;;;;8.05;2.25;;;12.00;99.90;;;;;;5053816;28;20039;-47
2021/10/02 03:09:25;;;;;;;6.07;2.63;;;11.90;99.90;;;;;;5062484;28;20059;-46
2021/10/02 03:11:53;;;;;;;3.03;2.35;;;12.00;99.90;;;;;;5063223;28;20349;-46
2021/10/02 03:14:21;;;;;;;7.82;2.78;;;11.90;99.90;;;;;;5060358;28;20036;-46
2021/10/02 03:16:49;;;;;;;4.88;2.17;;;12.00;99.90;;;;;;5067591;28;20089;-46
2021/10/02 03:19:14;;;;;;;6.78;2.53;;;12.00;99.90;;;;;;5067105;28;20467;-46
2021/10/02 03:21:41;;;;;;;5.75;2.70;;;12.00;99.90;;;;;;5068473;28;20043;-47
2021/10/02 03:24:07;;;;;;;3.47;2.25;;;12.10;99.90;;;;;;5057921;28;20017;-47
2021/10/02 03:26:36;;;;;;;7.78;2.47;;;12.20;99.90;;;;;;5063004;28;20059;-46
2021/10/02 03:29:02;;;;;;;7.88;2.70;;;12.20;99.90;;;;;;5063899;28;20103;-48
2021/10/02 03:31:28;;;;;;;5.75;2.53;;;12.20;99.90;;;;;;5063025;28;20157;-46
2021/10/02 03:33:54;;;;;;;2.38;2.17;;;12.30;99.90;;;;;;5063949;28;20032;-46
2021/10/02 03:36:20;;;;;;;5.93;1.98;;;12.30;99.90;;;;;;5050130;28;20090;-47
2021/10/02 03:38:47;;;;;;;5.50;2.30;;;12.30;99.90;;;;;;5063258;28;20031;-46
2021/10/02 03:41:12;;;;;;;5.80;2.42;;;12.30;99.90;;;;;;5048229;28;20084;-47
2021/10/02 03:43:38;;;;;;;6.32;2.78;;;12.40;99.90;;;;;;5064300;28;20500;-46
2021/10/02 03:46:04;;;;;;;6.68;2.58;;;12.40;99.90;;;;;;5068260;28;20071;-46
2021/10/02 03:48:31;;;;;;;3.83;2.55;;;12.40;99.90;;;;;;5067789;28;20080;-49
2021/10/02 03:50:58;;;;;;;7.18;2.45;;;12.40;99.90;;;;;;5066844;28;20029;-48
2021/10/02 03:53:24;;;;;;;3.72;2.58;;;12.40;99.90;;;;;;5055642;28;20035;-46
2021/10/02 03:55:50;;;;;;;3.70;2.78;;;12.40;99.90;;;;;;5054672;28;20025;-46
2021/10/02 03:58:15;;;;;;;6.90;2.80;;;12.40;99.90;;;;;;5067659;28;20037;-49
2021/10/02 04:00:41;;;;;;;3.60;2.42;;;12.40;99.90;;;;;;5056959;28;20374;-48
2021/10/02 04:03:06;;;;;;;4.50;2.30;;;12.50;99.90;;;;;;5067848;28;20024;-48
2021/10/02 04:05:32;;;;;;;3.63;2.80;;;12.40;99.90;;;;;;5068153;28;20501;-47
2021/10/02 04:07:57;;;;;;;5.88;3.42;;;12.40;99.90;;;;;;5062828;28;20053;-48
2021/10/02 04:10:23;;;;;;;6.38;2.70;;;12.40;99.90;;;;;;5059707;28;20041;-48
2021/10/02 04:12:48;;;;;;;7.13;2.70;;;12.40;99.90;;;;;;5065193;28;20039;-46
2021/10/02 04:15:14;;;;;;;5.65;2.58;;;12.40;99.90;;;;;;5057942;28;20037;-47
2021/10/02 04:17:39;;;;;;;4.88;3.78;;;12.40;99.90;;;;;;5067247;28;20024;-46
2021/10/02 04:20:06;;;;;;;6.47;2.55;;;12.40;99.90;;;;;;5061802;28;20074;-47
2021/10/02 04:22:32;;;;;;;3.63;2.90;;;12.30;99.90;;;;;;5049515;28;20513;-49
2021/10/02 04:24:58;;;;;;;7.53;2.95;;;12.30;99.90;;;;;;5066463;28;20099;-47
2021/10/02 04:27:23;;;;;;;7.55;3.05;;;12.30;99.90;;;;;;5067278;28;20031;-46
2021/10/02 04:29:49;;;;;;;7.25;3.30;;;12.20;99.90;;;;;;5053448;28;20108;-46
2021/10/02 04:32:14;;;;;;;5.13;3.20;;;12.20;99.90;;;;;;5059385;28;20066;-47
2021/10/02 04:34:40;;;;;;;5.78;2.85;;;12.20;99.90;;;;;;5067518;28;20024;-49
2021/10/02 04:37:06;;;;;;;3.88;2.67;;;12.20;99.90;;;;;;5067453;28;20267;-48
2021/10/02 04:39:31;;;;;;;5.55;3.05;;;12.20;99.90;;;;;;5067613;28;20164;-46
2021/10/02 04:41:57;;;;;;;6.22;3.20;;;12.20;99.90;;;;;;5066585;28;20021;-46
2021/10/02 04:44:23;;;;;;;6.25;3.63;;;12.10;99.90;;;;;;5068006;28;20028;-46
2021/10/02 04:46:49;;;;;;;7.00;3.65;;;12.10;99.90;;;;;;5070070;28;20035;-46
2021/10/02 04:49:16;;;;;;;3.63;2.50;;;12.10;99.90;;;;;;5071124;28;20255;-46
2021/10/02 04:51:41;;;;;;;6.25;3.00;;;12.10;99.90;;;;;;5071436;28;20031;-46
2021/10/02 04:54:07;;;;;;;4.30;2.55;;;12.10;99.90;;;;;;5071123;28;20033;-46
2021/10/02 04:56:33;;;;;;;4.28;2.90;;;12.10;99.90;;;;;;5070967;28;20456;-46
2021/10/02 04:58:59;;;;;;;4.35;2.33;;;12.10;99.90;;;;;;5069680;28;20029;-46
2021/10/02 05:01:25;;;;;;;4.85;2.60;;;12.10;99.90;;;;;;5052396;28;20047;-46
2021/10/02 05:03:51;;;;;;;6.88;2.97;;;12.10;99.90;;;;;;5068928;28;20028;-46
2021/10/02 05:06:17;;;;;;;6.05;2.70;;;12.10;99.90;;;;;;5056641;28;20043;-47
2021/10/02 05:08:45;;;;;;;4.97;2.65;;;12.10;99.90;;;;;;5062015;28;20113;-46
2021/10/02 05:11:11;;;;;;;5.25;2.58;;;12.10;99.90;;;;;;5070915;28;20108;-46
2021/10/02 05:13:37;;;;;;;4.22;2.70;;;12.10;99.90;;;;;;5061517;28;20111;-47
2021/10/02 05:16:03;;;;;;;8.43;2.63;;;12.10;99.90;;;;;;5061783;28;20032;-48
2021/10/02 05:18:28;;;;;;;7.05;3.20;;;12.10;99.90;;;;;;5069952;28;20025;-46
2021/10/02 05:20:54;;;;;;;6.25;2.90;;;12.10;99.90;;;;;;5057366;28;20093;-47
2021/10/02 05:23:20;;;;;;;5.63;2.63;;;12.10;99.90;;;;;;5063558;28;20048;-46
2021/10/02 05:25:45;;;;;;;4.15;2.58;;;12.10;99.90;;;;;;5054291;28;20021;-46
2021/10/02 05:28:11;;;;;;;4.50;2.70;;;12.10;99.90;;;;;;5061472;28;20050;-46
2021/10/02 05:30:37;;;;;;;4.60;3.08;;;12.10;99.90;;;;;;5061026;28;20391;-46
2021/10/02 05:33:03;;;;;;;4.85;2.55;;;12.10;99.90;;;;;;5060803;28;20494;-45
2021/10/02 05:35:30;;;;;;;5.22;2.80;;;12.10;99.90;;;;;;5068832;28;20031;-46
2021/10/02 05:37:56;;;;;;;7.28;3.00;;;12.00;99.90;;;;;;5069708;28;20426;-46
2021/10/02 05:40:21;;;;;;;6.20;2.72;;;12.10;99.90;;;;;;5070306;28;20036;-45
2021/10/02 05:42:47;;;;;;;4.55;2.85;;;12.10;99.90;;;;;;5070098;28;20024;-45
2021/10/02 05:45:12;;;;;;;5.43;3.00;;;12.10;99.90;;;;;;5068705;28;20016;-46
2021/10/02 05:47:38;;;;;;;5.43;2.85;;;12.10;99.90;;;;;;5068224;28;20119;-46
2021/10/02 05:50:04;;;;;;;3.85;2.65;;;12.20;99.90;;;;;;5069656;28;20438;-46
2021/10/02 05:52:29;;;;;;;3.70;2.58;;;12.20;99.90;;;;;;5068680;28;20079;-45
2021/10/02 05:54:55;;;;;;;3.88;2.72;;;12.20;99.90;;;;;;5069841;28;20301;-46
2021/10/02 05:57:21;;;;;;;9.40;3.33;;;12.20;99.90;;;;;;5068927;28;20035;-45
2021/10/02 05:59:47;;;;;;;8.27;2.78;;;12.20;99.90;;;;;;5068545;28;20386;-46
2021/10/02 06:02:13;;;;;;;3.90;2.92;;;12.10;99.90;;;;;;5055105;28;20079;-45
2021/10/02 06:04:39;;;;;;;5.22;2.50;;;12.10;99.90;;;;;;5065576;28;20028;-46
2021/10/02 06:07:04;;;;;;;3.50;3.00;;;12.20;99.90;;;;;;5064236;28;20693;-46
2021/10/02 06:09:30;;;;;;;6.60;2.58;;;12.20;99.90;;;;;;5048830;28;20021;-48
2021/10/02 06:11:56;;;;;;;7.80;2.60;;;12.20;99.90;;;;;;5044005;28;20108;-45
2021/10/02 06:14:22;;;;;;;5.88;2.28;;;12.20;99.90;;;;;;5047282;28;20396;-46
2021/10/02 06:16:47;;;;;;;2.88;2.45;;;12.20;99.90;;;;;;5041587;28;20047;-46
2021/10/02 06:19:13;;;;;;;5.22;2.88;;;12.20;99.90;;;;;;5048675;28;20389;-46
2021/10/02 06:21:38;;;;;;;4.15;2.45;;;12.20;99.90;;;;;;5046981;28;20025;-46
2021/10/02 06:24:04;;;;;;;3.72;2.53;;;12.20;99.90;;;;;;5043188;28;20033;-46
2021/10/02 06:26:32;;;;;;;3.63;2.72;;;12.20;99.90;;;;;;5039699;28;20029;-50
2021/10/02 06:28:57;;;;;;;5.20;3.22;;;12.20;99.90;;;;;;5035590;28;20163;-47
2021/10/02 06:31:24;;;;;;;4.68;2.33;;;12.30;99.90;;;;;;5043490;28;20486;-46
2021/10/02 06:33:50;;;;;;;4.40;2.80;;;12.30;99.90;;;;;;5059300;28;20485;-51
2021/10/02 06:36:16;;;;;;;4.80;2.58;;;12.30;99.90;;;;;;5044160;28;20036;-45
2021/10/02 06:38:42;;;;;;;7.45;3.38;;;12.30;99.90;;;;;;5039841;28;20037;-47
2021/10/02 06:41:08;;;;;;;5.07;2.15;;;12.30;99.90;;;;;;5049041;28;20036;-45
2021/10/02 06:43:34;;;;;;;4.20;2.10;;;12.20;99.90;;;;;;5048970;28;20053;-44
2021/10/02 06:46:00;;;;;;;6.65;2.33;;;12.30;99.90;;;;;;5051311;28;20478;-45
2021/10/02 06:48:25;;;;;;;7.07;2.85;;;12.40;99.90;;;;;;5062426;28;20031;-47
2021/10/02 06:50:51;;;;;;;4.18;2.70;;;12.50;99.90;;;;;;5068712;28;20024;-44
2021/10/02 06:53:16;;;;;;;4.63;2.55;;;12.60;99.90;;;;;;5067513;28;20028;-46
2021/10/02 06:55:42;;;;;;;9.23;2.58;;;12.80;99.90;;;;;;5068797;28;20056;-46
2021/10/02 06:58:08;;;;;;;5.45;2.90;;;12.90;99.90;;;;;;5062647;28;20033;-47
2021/10/02 07:00:35;;;;;;;6.10;2.40;;;12.90;99.90;;;;;;5035600;28;20384;-47
2021/10/02 07:03:00;;;;;;;4.13;2.45;;;12.90;99.90;;;;;;5058477;28;20033;-45
2021/10/02 07:05:26;;;;;;;4.07;2.10;;;12.90;99.90;;;;;;5068625;28;20028;-47
2021/10/02 07:07:52;;;;;;;5.32;2.30;;;12.90;99.90;;;;;;5067433;28;20512;-45
2021/10/02 07:10:20;;;;;;;4.70;2.40;;;12.90;99.90;;;;;;5067225;28;20020;-45
2021/10/02 07:12:49;;;;;;;5.35;2.30;;;13.00;99.90;;;;;;5068401;28;20063;-45
2021/10/02 07:15:15;;;;;;;5.95;2.40;;;13.00;99.90;;;;;;5068306;28;20044;-45
2021/10/02 07:17:42;;;;;;;5.32;2.45;;;13.00;99.90;;;;;;5068584;28;20042;-47
2021/10/02 07:20:08;;;;;;;5.88;2.08;;;13.10;99.90;;;;;;5067243;28;20025;-47
2021/10/02 07:22:37;;;;;;;4.95;2.63;;;13.00;99.90;;;;;;5053325;28;20033;-46
2021/10/02 07:25:05;;;;;;;6.00;2.50;;;13.10;99.90;;;;;;5069035;28;20052;-48
2021/10/02 07:27:31;;;;;;;6.70;2.60;;;13.10;99.90;;;;;;5055800;28;20013;-45
2021/10/02 07:29:56;;;;;;;3.60;2.53;;;13.10;99.90;;;;;;5061505;28;20035;-46
2021/10/02 07:32:23;;;;;;;6.45;3.05;;;13.20;99.90;;;;;;5069925;28;20040;-46
2021/10/02 07:34:50;;;;;;;3.20;2.17;;;13.20;99.90;;;;;;5069816;28;20028;-44
2021/10/02 07:37:15;;;;;;;5.18;2.25;;;13.20;99.90;;;;;;5069276;28;20035;-45
2021/10/02 07:39:41;;;;;;;7.50;2.67;;;13.20;99.90;;;;;;5068417;28;20024;-45
2021/10/02 07:42:07;;;;;;;4.88;2.53;;;13.30;99.90;;;;;;5068938;28;20028;-46
2021/10/02 07:44:35;;;;;;;7.80;2.83;;;13.40;99.90;;;;;;5050637;28;20029;-44
2021/10/02 07:47:02;;;;;;;8.73;2.50;;;13.40;99.90;;;;;;5041705;28;20025;-44
2021/10/02 07:49:32;;;;;;;9.10;2.22;;;13.40;99.90;;;;;;5045889;28;20461;-45
2021/10/02 07:51:58;;;;;;;6.78;2.75;;;13.40;99.90;;;;;;5038507;28;20021;-46
2021/10/02 07:54:26;;;;;;;3.30;2.20;;;13.50;99.90;;;;;;5035662;28;20109;-45
2021/10/02 07:56:51;;;;;;;4.70;2.22;;;13.40;99.90;;;;;;5035995;28;20017;-45
2021/10/02 07:59:17;;;;;;;7.32;2.35;;;13.40;99.90;;;;;;5043956;28;20604;-45
2021/10/02 08:01:44;;;;;;;5.60;2.15;;;13.40;99.90;;;;;;5040326;28;20111;-45
2021/10/02 08:04:10;;;;;;;4.22;2.53;;;13.40;99.90;;;;;;5041829;28;20474;-45
2021/10/02 08:06:37;;;;;;;6.60;2.50;;;13.40;99.90;;;;;;5047140;28;20049;-45
2021/10/02 08:09:04;;;;;;;4.90;2.35;;;13.40;99.90;;;;;;5053287;28;20017;-45
2021/10/02 08:11:30;;;;;;;4.07;2.63;;;13.40;99.90;;;;;;5062126;28;20067;-45
2021/10/02 08:13:56;;;;;;;4.63;2.53;;;13.40;99.90;;;;;;5065895;28;20068;-45
2021/10/02 08:16:28;;;;;;;5.35;2.40;;;13.40;99.90;;;;;;5055093;28;20116;-46
2021/10/02 08:18:56;;;;;;;6.85;3.20;;;13.50;99.90;;;;;;5058265;28;20474;-45
2021/10/02 08:21:22;;;;;;;6.30;2.72;;;13.60;99.90;;;;;;5064672;28;20929;-46
2021/10/02 08:23:47;;;;;;;11.18;3.22;;;13.60;99.90;;;;;;5056867;28;20060;-46
2021/10/02 08:26:16;;;;;;;4.05;2.20;;;13.70;99.90;;;;;;5070515;28;20067;-47
2021/10/02 08:28:51;;;;;;;5.57;2.50;;;13.90;99.90;;;;;;5058332;28;20017;-46
2021/10/02 08:31:20;;;;;;;4.18;2.10;;;14.20;99.90;;;;;;5031831;28;20031;-45
2021/10/02 08:33:45;;;;;;;3.42;1.90;;;14.60;99.90;;;;;;5040953;28;20021;-46
2021/10/02 08:36:11;;;;;;;8.18;2.10;;;15.10;99.90;;;;;;5040311;28;20478;-45
2021/10/02 08:38:37;;;;;;;6.03;2.13;;;15.70;99.90;;;;;;5045759;28;20639;-45
2021/10/02 08:41:04;;;;;;;3.70;1.80;;;16.10;99.90;;;;;;5039972;28;20490;-49
2021/10/02 08:43:32;;;;;;;3.75;2.00;;;16.40;99.90;;;;;;5042397;28;20028;-45
2021/10/02 08:46:00;;;;;;;2.78;2.08;;;16.60;99.90;;;;;;5034616;28;20525;-46
2021/10/02 08:48:26;;;;;;;3.38;1.92;;;17.00;99.90;;;;;;5042344;28;20410;-45
2021/10/02 08:50:55;;;;;;;3.65;1.95;;;17.10;99.90;;;;;;5050722;28;20029;-46
2021/10/02 08:53:21;;;;;;;3.33;1.95;;;17.40;99.90;;;;;;5061305;28;20490;-46
2021/10/02 08:55:46;;;;;;;3.08;1.88;;;18.60;99.90;;;;;;5062088;28;20032;-46
2021/10/02 08:58:12;;;;;;;3.00;1.73;;;19.90;99.90;;;;;;5058261;28;20062;-46
2021/10/02 09:00:39;;;;;;;1.55;1.20;;;21.60;99.20;;;;;;5051389;28;20450;-47
2021/10/02 09:03:05;;;;;;;5.68;1.90;;;23.40;93.60;;;;;;5061828;28;20033;-46
2021/10/02 09:05:31;;;;;;;2.80;1.88;;;23.80;86.00;;;;;;5070330;28;20025;-45
2021/10/02 09:07:58;;;;;;;2.50;1.52;;;23.40;88.00;;;;;;5069000;28;20044;-48
2021/10/02 09:10:25;;;;;;;3.70;1.80;;;23.50;84.70;;;;;;5068940;28;20509;-49
2021/10/02 09:12:51;;;;;;;1.70;1.40;;;23.20;83.70;;;;;;5054833;28;20025;-45
2021/10/02 09:15:18;;;;;;;3.55;1.67;;;22.00;87.30;;;;;;5029855;28;20037;-45
2021/10/02 09:17:45;;;;;;;4.90;1.67;;;21.10;90.00;;;;;;5054303;28;20210;-45
2021/10/02 09:20:12;;;;;;;3.20;1.98;;;20.00;91.90;;;;;;5069713;28;20029;-46
2021/10/02 09:22:38;;;;;;;2.58;1.88;;;19.10;94.50;;;;;;5070072;28;20082;-45
2021/10/02 09:25:07;;;;;;;3.80;2.60;;;18.30;96.30;;;;;;5070030;28;20032;-45
2021/10/02 09:27:34;;;;;;;8.88;2.78;;;17.90;97.50;;;;;;5069221;28;20095;-47
2021/10/02 09:30:13;;;;;;;6.47;1.90;;;17.70;99.00;;;;;;5069792;28;20029;-45
2021/10/02 09:32:43;;;;;;;2.88;2.00;;;17.40;99.90;;;;;;5068895;28;20035;-46
2021/10/02 09:35:17;;;;;;;3.97;2.22;;;17.00;99.90;;;;;;5069867;28;20025;-45
2021/10/02 09:37:45;;;;;;;5.82;2.63;;;16.60;99.90;;;;;;5069222;28;20016;-46
2021/10/02 09:40:11;;;;;;;6.30;2.20;;;16.40;99.90;;;;;;5069501;28;20115;-45
2021/10/02 09:42:38;;;;;;;5.65;2.25;;;16.30;99.90;;;;;;5056944;28;20565;-45
2021/10/02 09:45:08;;;;;;;2.70;2.05;;;16.20;99.90;;;;;;5061047;28;20040;-45
2021/10/02 09:47:34;;;;;;;3.78;1.92;;;16.30;99.90;;;;;;5057535;28;20047;-45
2021/10/02 09:50:00;;;;;;;4.70;2.28;;;16.30;99.90;;;;;;5034516;28;20555;-46
2021/10/02 09:52:41;;;;;;;3.47;1.77;;;16.30;99.90;;;;;;5029604;28;20434;-45
2021/10/02 09:55:17;;;;;;;3.72;1.75;;;16.40;99.90;;;;;;5029672;28;20064;-45
2021/10/02 09:57:46;;;;;;;8.50;2.47;;;16.50;99.90;;;;;;5044608;28;20021;-48
2021/10/02 10:00:17;;;;;;;3.22;1.85;;;16.50;99.90;;;;;;5053518;28;20025;-46
2021/10/02 10:02:44;;;;;;;6.15;2.10;;;16.50;99.90;;;;;;5030860;28;20458;-45
2021/10/02 10:05:11;;;;;;;3.33;1.98;;;16.60;99.90;;;;;;5060160;28;20058;-45
2021/10/02 10:07:38;;;;;;;5.10;2.00;;;16.70;99.90;;;;;;5068072;28;20028;-47
2021/10/02 10:10:12;;;;;;;1.77;1.50;;;16.90;99.90;;;;;;5059658;28;20040;-49
2021/10/02 10:12:40;;;;;;;5.07;1.98;;;17.30;99.90;;;;;;5069808;28;20373;-48
2021/10/02 10:15:25;;;;;;;4.90;2.00;;;17.60;99.90;;;;;;5060798;28;20036;-46
2021/10/02 10:17:51;;;;;;;5.63;1.77;;;17.70;99.90;;;;;;5059640;28;20462;-45
2021/10/02 10:20:16;;;;;;;2.67;1.42;;;18.10;99.90;;;;;;5069768;28;20063;-46
2021/10/02 10:22:42;;;;;;;3.15;1.90;;;18.10;99.90;;;;;;5069582;28;20127;-46
2021/10/02 10:25:11;;;;;;;4.95;1.90;;;18.50;99.90;;;;;;5068332;28;20028;-44
2021/10/02 10:27:46;;;;;;;2.25;1.30;;;18.70;99.90;;;;;;5053808;28;20020;-45
2021/10/02 10:30:22;;;;;;;2.45;1.33;;;19.30;99.90;;;;;;5053694;28;20052;-45
2021/10/02 10:32:59;;;;;;;3.03;1.60;;;20.10;99.60;;;;;;5054554;28;20026;-45
2021/10/02 10:35:27;;;;;;;2.65;1.33;;;21.60;97.10;;;;;;5060553;28;20036;-46
2021/10/02 10:37:53;;;;;;;4.00;1.60;;;22.80;94.90;;;;;;5068482;28;20411;-45
2021/10/02 10:40:19;;;;;;;2.58;1.52;;;23.80;90.60;;;;;;5069010;28;20044;-47
2021/10/02 10:42:46;;;;;;;3.28;1.58;;;24.90;88.20;;;;;;5059202;28;20360;-46
2021/10/02 10:45:11;;;;;;;1.85;1.25;;;25.40;81.80;;;;;;5060440;28;20048;-48
2021/10/02 10:47:37;;;;;;;2.70;1.17;;;26.30;77.10;;;;;;5062455;28;20556;-45
2021/10/02 10:50:04;;;;;;;2.83;1.10;;;26.40;74.10;;;;;;5059035;28;20032;-45
2021/10/02 10:52:40;;;;;;;2.22;1.40;;;25.70;74.50;;;;;;5068659;28;20040;-45
2021/10/02 10:55:20;;;;;;;2.03;1.00;;;24.80;74.90;;;;;;5062332;28;20494;-48
2021/10/02 10:57:55;;;;;;;4.07;1.10;;;23.30;78.50;;;;;;5059760;28;20111;-48
2021/10/02 11:00:32;;;;;;;3.85;1.60;;;22.30;81.70;;;;;;5068321;28;20557;-46
2021/10/02 11:03:03;;;;;;;2.80;1.52;;;21.50;85.20;;;;;;5056234;28;20040;-46
2021/10/02 11:05:35;;;;;;;1.35;0.90;;;20.40;88.90;;;;;;5063284;28;20295;-46
2021/10/02 11:08:12;;;;;;;3.30;1.23;;;20.50;90.90;;;;;;5059082;28;20539;-48
2021/10/02 11:10:55;;;;;;;4.93;1.52;;;20.20;91.10;;;;;;5064400;28;20051;-46
2021/10/02 11:13:46;;;;;;;2.58;1.25;;;20.00;91.60;;;;;;5057352;28;20617;-45
2021/10/02 11:16:32;;;;;;;5.75;1.35;;;19.40;92.80;;;;;;5028543;28;20033;-49
2021/10/02 11:18:57;;;;;;;2.72;1.48;;;19.30;94.00;;;;;;5031660;28;20037;-45
2021/10/02 11:21:29;;;;;;;3.10;1.40;;;19.30;93.40;;;;;;5059714;28;20040;-46
2021/10/02 11:24:11;;;;;;;2.03;1.38;;;19.10;94.30;;;;;;5068984;28;20029;-48
2021/10/02 11:26:41;;;;;;;1.60;1.40;;;18.90;95.30;;;;;;5059183;28;20028;-46
2021/10/02 11:29:17;;;;;;;4.10;1.38;;;18.80;94.90;;;;;;5059971;28;20039;-46
2021/10/02 11:31:43;;;;;;;2.78;1.13;;;19.00;95.30;;;;;;5061508;28;20032;-45
2021/10/02 11:34:21;;;;;;;4.25;1.60;;;19.10;95.30;;;;;;5060103;28;20028;-46
2021/10/02 11:36:55;;;;;;;2.63;1.70;;;18.90;94.70;;;;;;5064872;28;20028;-45
2021/10/02 11:39:26;;;;;;;1.63;1.33;;;19.10;94.60;;;;;;5061457;28;20101;-45
2021/10/02 11:42:07;;;;;;;3.20;1.20;;;19.60;95.30;;;;;;5068568;28;20070;-47
2021/10/02 11:44:33;;;;;;;4.50;1.52;;;20.00;93.70;;;;;;5068307;28;20424;-46
2021/10/02 11:47:34;;;;;;;2.47;1.48;;;20.20;93.50;;;;;;5067522;28;20035;-46
2021/10/02 11:50:12;;;;;;;1.80;1.17;;;19.90;92.80;;;;;;5068186;28;20017;-45
2021/10/02 11:52:41;;;;;;;1.65;1.10;;;19.00;94.00;;;;;;5068198;28;20413;-47
2021/10/02 11:55:38;;;;;;;1.52;1.10;;;18.80;95.00;;;;;;5065639;28;20385;-48
2021/10/02 11:58:09;;;;;;;4.93;2.00;;;19.20;95.20;;;;;;5053621;28;20039;-45
2021/10/02 12:00:45;;;;;;;1.88;1.35;;;19.60;94.30;;;;;;5072410;28;20107;-45
2021/10/02 12:03:20;;;;;;;1.40;1.20;;;20.50;92.00;;;;;;5060505;28;20146;-46
2021/10/02 12:05:48;;;;;;;1.23;0.93;;;21.10;91.50;;;;;;5045806;28;20169;-47
2021/10/02 12:08:14;;;;;;;5.13;1.58;;;21.40;90.70;;;;;;5052453;28;20148;-45
2021/10/02 12:10:58;;;;;;;2.90;1.15;;;22.10;90.40;;;;;;5062411;28;20032;-46
2021/10/02 12:13:28;;;;;;;2.20;1.27;;;23.10;87.30;;;;;;5071062;28;20028;-47
2021/10/02 12:16:02;;;;;;;1.20;1.10;;;22.80;85.30;;;;;;5065100;28;20178;-45
2021/10/02 12:18:51;;;;;;;1.88;1.25;;;22.40;90.00;;;;;;5064672;28;20570;-46
2021/10/02 12:21:22;;;;;;;3.03;1.10;;;22.30;87.50;;;;;;5068205;28;20060;-45
2021/10/02 12:23:57;;;;;;;1.30;1.10;;;22.50;87.00;;;;;;5056394;28;20032;-45
2021/10/02 12:26:25;;;;;;;2.17;1.23;;;22.60;89.40;;;;;;5071014;28;20021;-45
2021/10/02 12:28:58;;;;;;;2.05;1.35;;;23.00;87.50;;;;;;5070164;28;20444;-45
2021/10/02 12:31:40;;;;;;;3.65;1.40;;;22.70;83.50;;;;;;5071045;28;20020;-46
2021/10/02 12:34:10;;;;;;;4.30;1.63;;;21.90;88.00;;;;;;5070789;28;20024;-46
2021/10/02 12:36:44;;;;;;;1.90;1.15;;;21.30;87.50;;;;;;5059566;28;20028;-45
2021/10/02 12:39:09;;;;;;;1.42;1.10;;;20.90;89.90;;;;;;5055613;28;21007;-46
2021/10/02 12:41:40;;;;;;;3.25;1.13;;;20.80;91.00;;;;;;5071580;28;20213;-48
2021/10/02 12:44:13;;;;;;;1.40;1.30;;;21.10;90.70;;;;;;5059378;28;20021;-47
2021/10/02 12:46:39;;;;;;;2.72;1.13;;;21.40;90.80;;;;;;5067028;28;20032;-46
2021/10/02 12:49:05;;;;;;;4.07;1.73;;;21.40;89.60;;;;;;5071267;28;20470;-45
2021/10/02 12:51:31;;;;;;;3.08;1.40;;;21.40;90.50;;;;;;5070926;28;20063;-45
2021/10/02 12:53:56;;;;;;;5.63;1.50;;;21.20;88.60;;;;;;5071146;28;20028;-45
2021/10/02 12:56:22;;;;;;;2.63;1.45;;;20.60;90.50;;;;;;5068622;28;20024;-45
2021/10/02 12:58:47;;;;;;;5.57;2.30;;;20.70;90.90;;;;;;5055362;28;20025;-45
2021/10/02 13:01:13;;;;;;;4.70;2.17;;;20.90;90.70;;;;;;5070995;28;20021;-47
2021/10/02 13:03:41;;;;;;;4.05;1.95;;;20.80;90.20;;;;;;5056775;28;20406;-46
2021/10/02 13:06:07;;;;;;;3.28;1.70;;;20.50;91.20;;;;;;5069307;28;20025;-46
2021/10/02 13:08:33;;;;;;;2.67;1.75;;;20.70;91.20;;;;;;5070425;28;20505;-46
2021/10/02 13:10:58;;;;;;;2.15;1.60;;;20.50;90.90;;;;;;5059630;28;20036;-47
2021/10/02 13:13:24;;;;;;;2.83;1.45;;;20.30;90.80;;;;;;5047372;28;20040;-45
2021/10/02 13:15:55;;;;;;;2.10;1.02;;;20.30;91.30;;;;;;5039129;28;20033;-45
2021/10/02 13:18:23;;;;;;;2.08;1.60;;;20.20;91.30;;;;;;5042145;28;20025;-46
2021/10/02 13:20:56;;;;;;;2.47;1.23;;;20.20;91.40;;;;;;5041279;28;20047;-47
2021/10/02 13:23:32;;;;;;;1.95;1.10;;;20.20;91.30;;;;;;5041514;28;20025;-46
2021/10/02 13:26:00;;;;;;;1.42;1.08;;;19.80;91.70;;;;;;5040351;28;20018;-45
2021/10/02 13:28:30;;;;;;;1.25;1.08;;;19.40;92.20;;;;;;5039637;28;20030;-47
2021/10/02 13:31:04;;;;;;;1.87;1.23;;;19.20;92.70;;;;;;5043511;28;20512;-44
2021/10/02 13:33:30;;;;;;;3.33;1.23;;;19.00;93.00;;;;;;5039704;28;20025;-46
2021/10/02 13:35:58;;;;;;;3.45;1.10;;;18.90;93.90;;;;;;5039578;28;20112;-47
2021/10/02 13:38:38;;;;;;;1.13;1.05;;;18.80;93.60;;;;;;5038415;28;20537;-48
2021/10/02 13:41:12;;;;;;;1.88;1.30;;;18.80;94.00;;;;;;5040718;28;20471;-46
2021/10/02 13:44:23;;;;;;;3.13;1.10;;;18.70;94.20;;;;;;5039537;28;20053;-47
2021/10/02 13:46:49;;;;;;;1.90;1.33;;;18.80;94.30;;;;;;5017425;28;20084;-46
2021/10/02 13:49:15;;;;;;;3.85;1.45;;;18.80;94.50;;;;;;5035650;28;20039;-45
2021/10/02 13:51:41;;;;;;;1.88;1.23;;;18.80;94.50;;;;;;5038647;28;20029;-46